Impacts METAR Board INFO
IDs:

KATL - Atlanta/Hartsfield-J, GA, US

Updated at: 2058 UTC 11 Dec 2017
Potential Impact None Slight Moderate High
Time11/08Z 11/09Z 11/10Z 11/11Z 11/12Z 11/13Z 11/14Z 11/15Z 11/16Z 11/17Z 11/18Z 11/19Z 11/20Z
VIS10 10 10 10 10 10 10 10 10 10 10 10 10
CIG-- -- -- -- -- -- -- -- -- -- -- -- --
CoverCLRCLRCLRCLRCLRCLRCLRCLRCLRCLRCLRCLRCLR
FltCatVFRVFRVFRVFRVFRVFRVFRVFRVFRVFRVFRVFRVFR
WX--------------------------
WDir24026026029031027028028024000240270
WSpd3 5 4 5 6 5 7 7 8 0 4 6 8
WGst-- -- -- -- -- -- -- -- -- -- -- -- --
Raw hourly METARs
KATL 110752Z 24003KT 10SM CLR 01/M02 A3021 RMK AO2 SLP236 T00061022
KATL 110852Z 26005KT 10SM CLR 02/M02 A3019 RMK AO2 SLP230 T00171022 56013
KATL 110952Z 26004KT 10SM CLR 01/M02 A3018 RMK AO2 SLP227 T00111022
KATL 111052Z 29005KT 10SM CLR 01/M02 A3018 RMK AO2 SLP227 T00061022
KATL 111152Z 31006KT 10SM CLR M01/M03 A3018 RMK AO2 SLP230 T10061028 10017 21006 55003
KATL 111252Z 27005KT 10SM CLR M01/M02 A3019 RMK AO2 SLP230 T10061022
KATL 111352Z 28007KT 10SM CLR 03/M01 A3018 RMK AO2 SLP229 T00281011
KATL 111452Z 28007KT 10SM CLR 06/M01 A3019 RMK AO2 SLP228 T00611006 53001
KATL 111552Z 24008KT 10SM CLR 09/M01 A3019 RMK AO2 SLP227 T00891006
KATL 111652Z 00000KT 10SM CLR 11/01 A3015 RMK AO2 SLP215 T01060006
KATL 111752Z VRB04KT 10SM CLR 13/02 A3010 RMK AO2 SLP195 T01280017 10128 21011 58030
KATL 111852Z 24006KT 10SM CLR 15/02 A3008 RMK AO2 SLP187 T01500017
KATL 111952Z 27008KT 10SM CLR 16/01 A3005 RMK AO2 SLP178 T01610011